Time;durP1;ratioP1;P1;durP2;ratioP2;P2;SDS_P1;SDS_P2;PMS_P1;PMS_P2;Temp;Humidity;BMP_temperature;BMP_pressure;BME280_temperature;BME280_humidity;BME280_pressure;Samples;Min_cycle;Max_cycle;Signal;HPM_P1;HPM_P2
2021/06/10 04:33:17;;;;;;;12.33;11.13;;;14.40;99.90;;;;;;5065195;22;20577;-77
2021/06/10 04:35:43;;;;;;;19.23;12.50;;;14.50;99.90;;;;;;5051861;28;21174;-75
2021/06/10 04:38:10;;;;;;;13.43;11.77;;;14.60;99.90;;;;;;5052073;28;20180;-77
2021/06/10 04:40:35;;;;;;;19.30;12.27;;;14.70;99.90;;;;;;5072621;28;20189;-74
2021/06/10 04:43:01;;;;;;;13.50;12.30;;;14.80;99.90;;;;;;5072389;28;20406;-76
2021/06/10 04:45:27;;;;;;;15.67;12.80;;;14.90;99.90;;;;;;5058449;28;20228;-77
2021/06/10 04:47:52;;;;;;;14.07;12.03;;;15.00;99.90;;;;;;5048834;28;20274;-76
2021/06/10 04:50:18;;;;;;;13.80;12.43;;;15.20;99.90;;;;;;5052290;28;20184;-72
2021/06/10 04:52:44;;;;;;;13.30;11.90;;;15.30;99.90;;;;;;5050857;28;20196;-72
2021/06/10 04:55:09;;;;;;;13.87;12.57;;;15.40;99.90;;;;;;5052862;28;20415;-72
2021/06/10 04:57:36;;;;;;;12.07;11.07;;;15.60;99.90;;;;;;5035123;28;20179;-77
2021/06/10 05:00:04;;;;;;;11.87;10.10;;;16.00;99.90;;;;;;5050033;28;20181;-75
2021/06/10 05:02:30;;;;;;;13.00;11.60;;;17.40;99.90;;;;;;5042388;28;20471;-79
2021/06/10 05:04:55;;;;;;;12.00;10.80;;;19.30;99.90;;;;;;5051533;28;20427;-79
2021/06/10 05:07:21;;;;;;;10.73;9.60;;;20.90;99.90;;;;;;5051799;28;20192;-78
2021/06/10 05:09:47;;;;;;;11.23;10.13;;;22.30;99.90;;;;;;5053180;28;20528;-78
2021/06/10 05:12:12;;;;;;;10.60;9.70;;;23.20;99.90;;;;;;5043731;28;20733;-78
2021/06/10 05:14:38;;;;;;;14.30;9.50;;;23.80;99.90;;;;;;5033979;28;20176;-78
2021/06/10 05:17:04;;;;;;;9.10;8.20;;;24.40;99.90;;;;;;5042577;28;20205;-78
2021/06/10 05:19:30;;;;;;;10.07;9.20;;;24.90;99.90;;;;;;5053877;28;20173;-78
2021/06/10 05:21:55;;;;;;;10.03;8.93;;;25.40;99.90;;;;;;5034239;28;20967;-78
2021/06/10 05:24:23;;;;;;;10.17;9.33;;;25.60;99.90;;;;;;5051726;28;20649;-78
2021/06/10 05:26:49;;;;;;;10.37;9.47;;;25.60;99.90;;;;;;5044242;28;20280;-78
2021/06/10 05:29:14;;;;;;;10.47;9.57;;;25.80;99.90;;;;;;5053783;28;20451;-78
2021/06/10 05:31:40;;;;;;;12.20;9.83;;;25.90;99.90;;;;;;5051441;28;20240;-78
2021/06/10 05:34:06;;;;;;;11.83;9.13;;;26.00;99.90;;;;;;5032844;28;20192;-79
2021/06/10 05:36:31;;;;;;;13.00;10.57;;;25.70;99.90;;;;;;5053844;28;20200;-78
2021/06/10 05:38:57;;;;;;;10.70;9.73;;;25.30;99.90;;;;;;5055445;28;20264;-78
2021/06/10 05:41:22;;;;;;;13.93;10.27;;;24.70;99.90;;;;;;5054251;28;20680;-76
2021/06/10 05:43:48;;;;;;;11.43;10.23;;;24.00;99.90;;;;;;5055091;28;20188;-77
2021/06/10 05:46:14;;;;;;;15.07;9.80;;;23.80;99.90;;;;;;5037075;28;20181;-79
2021/06/10 05:48:40;;;;;;;11.60;10.50;;;23.60;99.90;;;;;;5058049;28;20431;-80
2021/06/10 05:51:06;;;;;;;11.40;10.07;;;23.40;99.90;;;;;;5054241;28;20465;-80
2021/06/10 05:53:31;;;;;;;10.47;9.43;;;23.40;99.90;;;;;;5051884;28;20185;-80
2021/06/10 05:55:57;;;;;;;11.10;10.00;;;23.30;99.90;;;;;;5050253;28;20263;-79
2021/06/10 05:58:23;;;;;;;10.23;9.43;;;23.40;99.90;;;;;;5052205;28;20228;-79
2021/06/10 06:00:50;;;;;;;11.40;10.13;;;23.40;99.90;;;;;;5050249;28;20217;-80
2021/06/10 06:03:15;;;;;;;11.23;10.03;;;23.40;99.90;;;;;;5049903;28;20181;-80
2021/06/10 06:05:41;;;;;;;11.23;9.80;;;23.40;99.90;;;;;;5047942;28;20850;-79
2021/06/10 06:08:07;;;;;;;9.33;8.53;;;23.40;99.90;;;;;;5052277;28;20260;-79
2021/06/10 06:10:33;;;;;;;9.13;8.43;;;23.30;99.90;;;;;;5041554;28;20543;-79
2021/06/10 06:13:01;;;;;;;9.17;8.40;;;23.30;99.90;;;;;;5031887;28;20261;-79
2021/06/10 06:15:27;;;;;;;10.50;9.47;;;23.30;99.90;;;;;;5036335;28;20509;-78
2021/06/10 06:17:53;;;;;;;10.83;9.73;;;23.40;99.90;;;;;;5042730;28;20527;-78
2021/06/10 06:20:21;;;;;;;9.33;7.83;;;23.70;99.90;;;;;;5048913;28;20174;-78
2021/06/10 06:22:46;;;;;;;10.93;9.93;;;23.60;99.90;;;;;;5049408;28;20181;-78
2021/06/10 06:25:13;;;;;;;13.00;8.80;;;23.90;99.90;;;;;;5050999;28;20411;-78
2021/06/10 06:27:40;;;;;;;8.70;7.80;;;24.00;99.90;;;;;;5047342;28;20260;-78
2021/06/10 06:30:08;;;;;;;9.60;8.57;;;24.20;99.90;;;;;;5051096;28;20756;-78
2021/06/10 06:32:35;;;;;;;10.40;9.40;;;23.90;99.90;;;;;;5049011;28;20821;-78
2021/06/10 06:35:05;;;;;;;10.17;8.40;;;23.90;99.90;;;;;;5052740;28;20759;-76
2021/06/10 06:37:30;;;;;;;8.30;7.50;;;24.10;99.90;;;;;;5036247;28;20457;-76
2021/06/10 06:39:56;;;;;;;9.27;8.47;;;24.20;99.90;;;;;;5033999;28;20428;-76
2021/06/10 06:42:22;;;;;;;10.17;9.03;;;24.20;99.90;;;;;;5050008;28;20213;-76
2021/06/10 06:44:47;;;;;;;10.10;9.20;;;24.40;99.90;;;;;;5036478;28;20501;-76
2021/06/10 06:47:13;;;;;;;9.30;8.57;;;24.10;99.90;;;;;;5052594;28;20189;-76
2021/06/10 06:49:38;;;;;;;9.37;8.50;;;24.00;99.90;;;;;;5054608;28;20196;-76
2021/06/10 06:52:04;;;;;;;8.93;8.17;;;24.10;99.90;;;;;;5055898;28;20217;-81
2021/06/10 06:54:30;;;;;;;9.33;8.37;;;24.20;99.90;;;;;;5054299;28;20213;-79
2021/06/10 06:56:56;;;;;;;8.83;7.53;;;24.20;99.90;;;;;;5056939;28;20467;-78
2021/06/10 06:59:21;;;;;;;8.97;8.17;;;24.40;99.90;;;;;;5052185;28;20184;-78
2021/06/10 07:01:47;;;;;;;12.30;8.27;;;24.80;99.90;;;;;;5051142;28;20201;-77
2021/06/10 07:04:12;;;;;;;6.97;6.27;;;25.20;99.90;;;;;;5051740;28;20178;-77
2021/06/10 07:06:38;;;;;;;8.70;7.90;;;25.20;99.90;;;;;;5054363;28;20257;-76
2021/06/10 07:09:04;;;;;;;9.43;8.63;;;25.60;99.90;;;;;;5060958;28;20177;-76
2021/06/10 07:11:34;;;;;;;11.90;6.67;;;25.60;99.90;;;;;;5057484;28;20201;-76
2021/06/10 07:14:00;;;;;;;8.90;8.20;;;25.70;99.90;;;;;;5053957;28;20418;-75
2021/06/10 07:16:25;;;;;;;7.83;7.23;;;25.30;99.90;;;;;;5035012;28;20467;-76
2021/06/10 07:18:51;;;;;;;9.57;8.17;;;25.20;99.90;;;;;;5034209;28;20618;-76
2021/06/10 07:21:19;;;;;;;9.43;8.40;;;25.00;99.90;;;;;;5044534;28;20678;-76
2021/06/10 07:23:45;;;;;;;10.23;9.33;;;24.70;99.90;;;;;;5053877;28;20184;-76
2021/06/10 07:26:10;;;;;;;9.90;9.03;;;24.60;99.90;;;;;;5049679;28;20431;-76
2021/06/10 07:28:36;;;;;;;13.00;10.47;;;24.50;99.90;;;;;;5053862;28;20181;-76
2021/06/10 07:31:02;;;;;;;10.03;9.13;;;24.60;99.90;;;;;;5048110;28;20206;-76
2021/06/10 07:33:27;;;;;;;12.93;10.20;;;24.60;99.90;;;;;;5048635;28;20262;-75
2021/06/10 07:35:53;;;;;;;10.97;9.87;;;24.50;99.90;;;;;;5052868;28;20266;-75
2021/06/10 07:38:19;;;;;;;11.20;10.10;;;24.70;99.90;;;;;;5053470;28;20234;-74
2021/06/10 07:40:44;;;;;;;9.87;8.90;;;25.10;99.90;;;;;;5060247;22;20370;-77
2021/06/10 07:43:10;;;;;;;11.90;10.80;;;25.70;99.90;;;;;;5032559;28;20190;-79
2021/06/10 07:45:36;;;;;;;10.03;9.23;;;26.00;99.90;;;;;;5013103;28;20171;-78
2021/06/10 07:48:02;;;;;;;11.70;9.03;;;26.40;99.90;;;;;;5026898;28;20186;-79
2021/06/10 07:50:28;;;;;;;9.70;8.80;;;26.90;99.90;;;;;;5032922;28;20261;-76
2021/06/10 07:52:53;;;;;;;10.43;9.63;;;26.90;99.90;;;;;;5031026;28;20523;-78
2021/06/10 07:55:21;;;;;;;12.23;8.97;;;27.10;99.90;;;;;;5030349;28;20842;-78
2021/06/10 07:57:48;;;;;;;10.50;9.57;;;27.50;99.90;;;;;;5031049;28;20437;-78
2021/06/10 08:00:14;;;;;;;10.10;9.27;;;27.80;99.90;;;;;;5033433;28;20444;-78
2021/06/10 08:02:43;;;;;;;12.07;9.87;;;28.20;99.90;;;;;;5028576;28;20464;-78
2021/06/10 08:05:10;;;;;;;13.10;9.70;;;28.40;99.90;;;;;;5032693;28;20419;-78
2021/06/10 08:07:36;;;;;;;16.03;9.17;;;28.50;99.90;;;;;;5032679;28;20413;-77
2021/06/10 08:10:04;;;;;;;9.80;8.87;;;28.60;99.90;;;;;;5029407;28;20448;-79
2021/06/10 08:12:29;;;;;;;11.23;10.10;;;28.90;99.90;;;;;;5032248;28;20432;-79
2021/06/10 08:14:55;;;;;;;11.40;10.40;;;29.40;99.90;;;;;;5027808;28;20487;-77
2021/06/10 08:17:20;;;;;;;9.93;9.07;;;29.60;99.90;;;;;;5030955;28;20213;-78
2021/06/10 08:19:46;;;;;;;11.80;10.43;;;29.80;99.90;;;;;;5031359;28;20178;-77
2021/06/10 08:22:12;;;;;;;10.97;10.03;;;29.80;99.90;;;;;;5032602;28;20201;-78
2021/06/10 08:24:37;;;;;;;10.40;9.67;;;29.50;99.90;;;;;;5031220;28;20750;-78
2021/06/10 08:27:03;;;;;;;11.47;10.57;;;29.70;99.90;;;;;;5030674;28;20224;-78
2021/06/10 08:29:30;;;;;;;12.00;10.80;;;29.90;99.90;;;;;;5032551;28;20592;-77
2021/06/10 08:31:56;;;;;;;11.50;10.30;;;29.70;99.90;;;;;;5030500;28;20213;-78
2021/06/10 08:34:22;;;;;;;11.03;10.03;;;29.60;99.90;;;;;;5021939;28;20436;-78
2021/06/10 08:36:49;;;;;;;11.17;10.20;;;29.70;99.90;;;;;;5022290;28;20275;-78
2021/06/10 08:39:15;;;;;;;11.43;10.23;;;30.30;99.90;;;;;;5032306;28;20460;-80
2021/06/10 08:41:41;;;;;;;9.63;8.90;;;30.10;99.90;;;;;;5024055;28;20554;-79
2021/06/10 08:44:07;;;;;;;10.03;9.23;;;30.10;99.90;;;;;;5022504;28;20418;-79
2021/06/10 08:46:35;;;;;;;10.40;9.50;;;30.50;99.90;;;;;;5029591;28;20451;-79
2021/06/10 08:49:01;;;;;;;10.90;9.90;;;30.50;99.90;;;;;;5029243;28;20186;-78
2021/06/10 08:51:27;;;;;;;11.20;10.20;;;30.50;99.90;;;;;;5030293;28;20449;-78
2021/06/10 08:53:56;;;;;;;10.50;9.70;;;31.00;99.90;;;;;;5030728;28;20964;-78
2021/06/10 08:56:23;;;;;;;10.07;9.17;;;30.80;99.90;;;;;;5030727;28;20205;-78
2021/06/10 08:58:49;;;;;;;10.73;9.87;;;30.80;99.90;;;;;;5028443;28;20446;-79
2021/06/10 09:01:15;;;;;;;10.20;9.30;;;31.10;99.90;;;;;;5031284;28;20523;-78
2021/06/10 09:03:41;;;;;;;11.30;10.37;;;31.20;99.90;;;;;;5015184;28;20194;-78
2021/06/10 09:06:18;;;;;;;10.90;9.90;;;31.20;99.90;;;;;;5012524;28;20463;-79
2021/06/10 09:08:46;;;;;;;10.83;10.03;;;31.30;99.90;;;;;;5019954;28;20438;-79
2021/06/10 09:11:19;;;;;;;9.80;8.87;;;31.10;99.90;;;;;;5032094;28;20805;-77
2021/06/10 09:13:48;;;;;;;9.70;8.87;;;31.20;99.90;;;;;;5026915;28;20436;-78
2021/06/10 09:16:25;;;;;;;9.80;8.80;;;31.40;99.90;;;;;;5031288;28;20464;-78
2021/06/10 09:19:01;;;;;;;9.17;8.37;;;32.00;99.90;;;;;;5027969;28;20452;-77
2021/06/10 09:21:30;;;;;;;10.17;9.07;;;32.00;99.90;;;;;;5024182;28;20471;-77
2021/06/10 09:23:56;;;;;;;9.30;8.70;;;32.00;99.90;;;;;;5030924;28;20408;-78
2021/06/10 09:26:22;;;;;;;10.73;9.67;;;32.20;99.90;;;;;;5027939;28;20570;-77
2021/06/10 09:28:51;;;;;;;11.17;9.47;;;32.00;99.90;;;;;;5031317;28;20507;-78
2021/06/10 09:31:34;;;;;;;8.80;8.00;;;32.00;99.90;;;;;;5026669;28;20292;-78
2021/06/10 09:34:09;;;;;;;10.50;9.67;;;32.10;99.90;;;;;;5021969;28;20444;-79
2021/06/10 09:36:47;;;;;;;9.17;8.40;;;32.20;99.90;;;;;;5030564;28;20471;-78
2021/06/10 09:39:23;;;;;;;10.73;9.93;;;32.40;99.90;;;;;;5031540;28;20453;-78
2021/06/10 09:42:08;;;;;;;12.80;11.57;;;32.40;99.90;;;;;;5028941;28;20482;-79
2021/06/10 09:44:48;;;;;;;11.10;10.20;;;32.50;99.90;;;;;;5016027;28;20432;-79
2021/06/10 09:47:14;;;;;;;12.00;11.00;;;32.30;99.90;;;;;;5028050;28;20439;-78
2021/06/10 09:49:39;;;;;;;10.73;9.73;;;32.40;99.90;;;;;;5032295;28;20844;-80
2021/06/10 09:52:05;;;;;;;10.87;10.07;;;32.20;99.90;;;;;;5033173;28;20468;-82
2021/06/10 09:55:04;;;;;;;13.07;11.73;;;32.30;99.90;;;;;;5029056;28;20193;-78
2021/06/10 09:57:29;;;;;;;11.93;10.90;;;32.40;99.90;;;;;;5028759;28;20212;-80
2021/06/10 09:59:55;;;;;;;14.70;12.40;;;32.40;99.90;;;;;;5035152;28;20417;-80
2021/06/10 10:02:27;;;;;;;13.30;12.30;;;32.30;99.90;;;;;;5031185;28;20206;-80
2021/06/10 10:05:10;;;;;;;12.93;11.53;;;32.40;99.90;;;;;;5028863;28;20280;-80
2021/06/10 10:07:37;;;;;;;12.27;10.97;;;32.00;99.90;;;;;;5032594;28;20400;-80
2021/06/10 10:10:08;;;;;;;11.00;10.10;;;32.00;99.90;;;;;;5031488;28;20443;-79
2021/06/10 10:12:38;;;;;;;12.67;11.60;;;32.00;99.90;;;;;;5035068;28;20424;-78
2021/06/10 10:15:05;;;;;;;13.13;12.23;;;31.60;99.90;;;;;;5031068;28;20441;-79
2021/06/10 10:17:30;;;;;;;12.07;10.97;;;31.60;99.90;;;;;;5023297;28;20440;-78
2021/06/10 10:19:57;;;;;;;12.87;11.60;;;31.60;99.90;;;;;;5033283;28;20436;-78
2021/06/10 10:22:24;;;;;;;14.50;13.10;;;31.60;99.90;;;;;;5034861;28;20205;-79
2021/06/10 10:24:53;;;;;;;12.97;11.83;;;31.00;99.90;;;;;;5032146;28;20412;-79
2021/06/10 10:27:21;;;;;;;15.00;13.70;;;30.40;99.90;;;;;;5031615;28;20995;-78
2021/06/10 10:29:48;;;;;;;16.60;15.10;;;29.60;99.90;;;;;;5034585;28;20420;-79
2021/06/10 10:32:20;;;;;;;14.97;13.57;;;28.90;99.90;;;;;;5027696;28;20543;-78
2021/06/10 10:34:46;;;;;;;14.00;12.80;;;28.10;99.90;;;;;;5032453;28;20482;-78
2021/06/10 10:37:19;;;;;;;16.33;14.93;;;28.80;99.90;;;;;;5030670;28;20460;-79
2021/06/10 10:39:45;;;;;;;15.60;13.67;;;29.40;99.90;;;;;;5034450;28;20184;-78
2021/06/10 10:42:29;;;;;;;14.83;13.63;;;30.10;99.90;;;;;;5033340;28;20514;-78
2021/06/10 10:45:09;;;;;;;15.70;14.17;;;30.30;99.90;;;;;;5033736;28;20409;-78
2021/06/10 10:48:01;;;;;;;15.83;14.63;;;30.80;99.90;;;;;;5028276;28;20945;-78
2021/06/10 10:50:36;;;;;;;14.80;13.30;;;31.40;99.90;;;;;;5033981;28;20427;-75
2021/06/10 10:53:06;;;;;;;13.77;12.67;;;31.40;99.90;;;;;;5030567;28;20432;-78
2021/06/10 10:55:31;;;;;;;14.07;12.97;;;31.10;99.90;;;;;;5033867;28;20486;-75
2021/06/10 10:57:57;;;;;;;16.17;14.70;;;30.70;99.90;;;;;;5034614;28;20490;-77
2021/06/10 11:00:43;;;;;;;15.10;13.90;;;30.70;99.90;;;;;;5029748;28;20236;-78
2021/06/10 11:03:29;;;;;;;15.40;14.13;;;30.30;99.90;;;;;;5031702;28;21018;-78
2021/06/10 11:05:57;;;;;;;15.23;13.77;;;30.00;99.90;;;;;;5031588;28;20424;-79
2021/06/10 11:09:11;;;;;;;17.23;15.73;;;29.60;99.90;;;;;;5034340;28;20764;-78
2021/06/10 11:11:55;;;;;;;18.20;16.40;;;29.00;99.90;;;;;;5030315;28;20488;-78
2021/06/10 11:14:34;;;;;;;18.03;16.50;;;28.80;99.90;;;;;;5032361;28;20837;-77
2021/06/10 11:17:14;;;;;;;17.17;15.57;;;29.20;99.90;;;;;;5029393;28;20481;-77
2021/06/10 11:20:05;;;;;;;18.70;16.83;;;29.80;99.90;;;;;;5033043;28;20800;-76
2021/06/10 11:22:49;;;;;;;17.70;16.20;;;30.20;99.90;;;;;;5026097;28;20464;-76
2021/06/10 11:25:36;;;;;;;17.30;15.80;;;30.60;99.90;;;;;;5031981;28;20789;-77
2021/06/10 11:28:14;;;;;;;18.57;16.87;;;30.30;99.90;;;;;;5013576;28;20914;-76
2021/06/10 11:30:40;;;;;;;16.57;14.97;;;29.60;99.90;;;;;;5013359;28;20436;-79
2021/06/10 11:33:16;;;;;;;17.60;15.90;;;29.60;99.90;;;;;;5024360;28;20495;-75
2021/06/10 11:35:53;;;;;;;17.37;16.07;;;29.70;99.90;;;;;;5026448;28;20459;-79
2021/06/10 11:38:24;;;;;;;15.50;14.07;;;30.00;99.90;;;;;;5034020;28;20409;-78
2021/06/10 11:41:06;;;;;;;15.17;13.97;;;30.10;99.90;;;;;;5033039;28;20487;-79
2021/06/10 11:43:34;;;;;;;17.03;14.80;;;30.30;99.90;;;;;;5033104;28;20433;-78
2021/06/10 11:46:11;;;;;;;16.10;13.43;;;30.50;99.90;;;;;;5032993;28;20486;-79
2021/06/10 11:48:44;;;;;;;14.07;12.97;;;30.40;99.90;;;;;;5032027;28;20465;-78
2021/06/10 11:51:24;;;;;;;16.30;15.00;;;30.20;99.90;;;;;;5032906;28;20437;-78
2021/06/10 11:53:52;;;;;;;15.20;13.83;;;29.80;99.90;;;;;;5032665;28;20404;-79
2021/06/10 11:56:29;;;;;;;14.63;13.43;;;29.20;99.90;;;;;;5032905;28;20456;-79
2021/06/10 11:59:02;;;;;;;12.93;11.83;;;29.30;99.90;;;;;;5032690;28;20408;-79
2021/06/10 12:01:29;;;;;;;13.63;12.63;;;29.30;99.90;;;;;;5032612;28;20982;-79
2021/06/10 12:03:54;;;;;;;12.67;11.53;;;29.70;99.90;;;;;;5032216;28;20405;-78
2021/06/10 12:06:20;;;;;;;14.27;13.10;;;30.00;99.90;;;;;;5032762;28;20470;-78
2021/06/10 12:08:48;;;;;;;13.23;12.03;;;30.10;99.90;;;;;;5034605;28;20265;-78
2021/06/10 12:11:15;;;;;;;12.47;11.47;;;30.40;99.90;;;;;;5035310;28;20190;-76
2021/06/10 12:13:44;;;;;;;12.60;11.30;;;30.50;99.90;;;;;;5032429;28;20409;-78
2021/06/10 12:16:20;;;;;;;11.20;10.17;;;30.50;99.90;;;;;;5031126;28;20476;-78
2021/06/10 12:18:50;;;;;;;9.93;9.23;;;30.30;99.90;;;;;;5032489;28;20516;-79
2021/06/10 12:21:17;;;;;;;9.07;7.07;;;30.40;99.90;;;;;;5032407;28;20467;-79
2021/06/10 12:23:58;;;;;;;10.50;9.70;;;30.70;99.90;;;;;;5032310;28;20503;-79
2021/06/10 12:26:26;;;;;;;9.70;9.00;;;30.50;99.90;;;;;;5031232;28;20448;-78
2021/06/10 12:28:53;;;;;;;13.53;9.30;;;30.60;99.90;;;;;;5032243;28;20424;-79
2021/06/10 12:31:27;;;;;;;10.03;9.23;;;30.80;99.90;;;;;;5031672;28;20441;-79
2021/06/10 12:33:55;;;;;;;10.37;9.47;;;31.20;99.90;;;;;;5031566;28;20421;-79
2021/06/10 12:36:24;;;;;;;9.27;8.47;;;30.90;99.90;;;;;;5032359;28;20662;-78
2021/06/10 12:39:13;;;;;;;9.43;8.57;;;31.00;99.90;;;;;;5032025;28;20459;-79
2021/06/10 12:41:47;;;;;;;9.30;8.70;;;30.70;99.90;;;;;;5031824;28;20445;-77
2021/06/10 12:44:13;;;;;;;12.23;9.03;;;30.90;99.90;;;;;;5030296;28;20423;-78
2021/06/10 12:46:59;;;;;;;10.73;9.93;;;30.90;99.90;;;;;;5031824;28;20905;-76
2021/06/10 12:49:49;;;;;;;10.73;9.67;;;30.60;99.90;;;;;;5031928;28;20205;-79
2021/06/10 12:52:20;;;;;;;10.27;9.50;;;30.60;99.90;;;;;;5031759;28;20961;-79
2021/06/10 12:54:50;;;;;;;12.00;11.00;;;30.40;99.90;;;;;;5031738;28;21015;-79
2021/06/10 12:57:19;;;;;;;12.60;11.23;;;29.80;99.90;;;;;;5031668;28;20916;-78
2021/06/10 12:59:52;;;;;;;12.03;11.07;;;29.20;99.90;;;;;;5031746;28;20420;-77
2021/06/10 13:02:19;;;;;;;12.03;10.83;;;29.10;99.90;;;;;;5031423;28;20439;-79
2021/06/10 13:04:47;;;;;;;12.00;10.87;;;28.90;99.90;;;;;;5030148;28;20411;-79
2021/06/10 13:07:38;;;;;;;13.37;11.00;;;29.10;99.90;;;;;;5031409;28;20412;-78
2021/06/10 13:10:09;;;;;;;12.03;10.10;;;29.10;99.90;;;;;;5011810;28;20405;-79
2021/06/10 13:12:49;;;;;;;10.40;9.60;;;29.30;99.90;;;;;;5011686;28;20442;-76
2021/06/10 13:15:24;;;;;;;11.77;7.53;;;29.40;99.90;;;;;;5011907;28;20779;-79
2021/06/10 13:17:56;;;;;;;6.07;5.70;;;29.40;99.90;;;;;;5011601;28;20409;-78
2021/06/10 13:20:49;;;;;;;8.10;6.87;;;28.70;99.90;;;;;;5011730;28;20418;-78
2021/06/10 13:23:27;;;;;;;8.47;7.77;;;28.90;99.90;;;;;;5011451;28;20862;-78
2021/06/10 13:26:17;;;;;;;6.77;6.30;;;28.80;99.90;;;;;;5012853;28;20455;-78
2021/06/10 13:28:57;;;;;;;6.60;6.10;;;28.70;99.90;;;;;;5012532;28;20409;-72
2021/06/10 13:31:33;;;;;;;6.90;6.37;;;28.90;99.90;;;;;;5011569;28;20490;-73
2021/06/10 13:34:03;;;;;;;6.40;5.80;;;28.70;99.90;;;;;;5011231;28;20433;-72
2021/06/10 13:36:30;;;;;;;7.40;6.80;;;28.60;99.90;;;;;;5011454;28;20464;-73
2021/06/10 13:38:57;;;;;;;6.03;5.63;;;28.50;99.90;;;;;;5011591;28;20910;-73
2021/06/10 13:41:26;;;;;;;7.60;6.10;;;28.40;99.90;;;;;;5011235;28;20838;-73
2021/06/10 13:43:52;;;;;;;7.13;6.60;;;28.40;99.90;;;;;;5012307;28;20413;-73
2021/06/10 13:46:18;;;;;;;9.00;8.30;;;28.30;99.90;;;;;;5015367;28;20413;-72
2021/06/10 13:48:45;;;;;;;8.33;7.83;;;28.10;99.90;;;;;;5015509;28;20413;-72
2021/06/10 13:51:11;;;;;;;9.30;7.70;;;28.00;99.90;;;;;;5023986;28;20288;-73
2021/06/10 13:53:37;;;;;;;8.23;7.40;;;28.10;99.90;;;;;;5023479;28;20414;-73
2021/06/10 13:56:03;;;;;;;9.97;9.17;;;28.10;99.90;;;;;;5015027;28;21041;-72
2021/06/10 13:58:29;;;;;;;9.37;8.50;;;28.10;99.90;;;;;;5015179;28;20757;-72
2021/06/10 14:00:55;;;;;;;8.53;7.93;;;28.00;99.90;;;;;;5014923;28;20524;-72
2021/06/10 14:03:21;;;;;;;9.57;8.87;;;27.70;99.90;;;;;;5014693;28;20489;-73
2021/06/10 14:05:50;;;;;;;9.50;8.70;;;27.40;99.90;;;;;;5014651;28;20504;-73
2021/06/10 14:08:18;;;;;;;9.47;8.73;;;27.00;99.90;;;;;;5015219;28;20206;-73
2021/06/10 14:10:44;;;;;;;10.70;9.90;;;26.70;99.90;;;;;;5015105;28;20440;-72
2021/06/10 14:13:10;;;;;;;10.17;9.20;;;26.50;99.90;;;;;;5014854;28;20907;-72
2021/06/10 14:15:36;;;;;;;11.10;10.20;;;26.40;99.90;;;;;;5015085;28;20453;-72
2021/06/10 14:18:02;;;;;;;12.20;11.00;;;26.40;99.90;;;;;;5014814;28;20414;-72
2021/06/10 14:20:28;;;;;;;13.23;11.93;;;26.30;99.90;;;;;;5015027;28;20616;-72
2021/06/10 14:22:53;;;;;;;14.80;13.40;;;26.20;99.90;;;;;;5014366;28;20729;-71
2021/06/10 14:25:19;;;;;;;13.83;11.73;;;26.20;99.90;;;;;;5014855;28;20230;-73
2021/06/10 14:27:45;;;;;;;14.20;13.00;;;26.10;99.90;;;;;;5014574;28;20777;-71
2021/06/10 14:32:49;;;;;;;14.23;13.03;;;26.10;99.90;;;;;;5014256;28;20191;-72
2021/06/10 14:35:15;;;;;;;19.80;13.37;;;25.90;99.90;;;;;;5014632;28;20909;-72
2021/06/10 14:37:41;;;;;;;14.23;13.03;;;26.00;99.90;;;;;;5014606;28;20276;-72
2021/06/10 14:40:08;;;;;;;14.77;13.27;;;25.90;99.90;;;;;;5014407;28;20433;-72
2021/06/10 14:42:34;;;;;;;15.53;13.40;;;25.80;99.90;;;;;;5014311;28;20448;-70
2021/06/10 14:45:00;;;;;;;13.83;12.07;;;25.70;99.90;;;;;;5014204;28;20409;-71
2021/06/10 14:47:26;;;;;;;9.30;8.50;;;25.50;99.90;;;;;;5014303;28;20921;-71
2021/06/10 14:49:51;;;;;;;10.77;9.77;;;25.60;99.90;;;;;;5014179;28;20171;-73
2021/06/10 14:52:17;;;;;;;9.07;8.27;;;25.60;99.90;;;;;;5014335;28;20197;-73
2021/06/10 14:54:46;;;;;;;11.40;10.37;;;25.60;99.90;;;;;;5013392;28;20174;-71
2021/06/10 14:57:13;;;;;;;11.40;10.30;;;25.70;99.90;;;;;;5013661;28;20555;-70
2021/06/10 14:59:38;;;;;;;10.87;10.00;;;25.80;99.90;;;;;;5014082;28;20414;-71
2021/06/10 15:02:04;;;;;;;10.33;9.53;;;26.10;99.90;;;;;;5013813;28;20507;-72
2021/06/10 15:04:30;;;;;;;10.30;9.30;;;26.20;99.90;;;;;;5013966;28;20171;-73
2021/06/10 15:06:56;;;;;;;10.60;9.70;;;26.30;99.90;;;;;;5014213;28;20166;-73
2021/06/10 15:09:22;;;;;;;11.90;9.63;;;26.20;99.90;;;;;;5014138;28;20792;-72
2021/06/10 15:11:47;;;;;;;8.77;7.97;;;26.10;99.90;;;;;;5013642;28;20215;-72
2021/06/10 15:14:13;;;;;;;8.13;7.53;;;26.20;99.90;;;;;;5013970;28;20175;-73
2021/06/10 15:16:39;;;;;;;8.83;8.00;;;26.10;99.90;;;;;;5013953;28;20723;-73
2021/06/10 15:19:04;;;;;;;14.00;8.23;;;26.30;99.90;;;;;;5012445;28;20175;-75
2021/06/10 15:21:30;;;;;;;7.90;7.17;;;26.20;99.90;;;;;;5013638;28;20215;-73
2021/06/10 15:23:58;;;;;;;6.13;5.63;;;26.10;99.90;;;;;;5013235;28;20207;-73
2021/06/10 15:26:24;;;;;;;6.83;6.10;;;26.00;99.90;;;;;;5037458;28;20178;-74
2021/06/10 15:28:50;;;;;;;7.03;6.43;;;26.10;99.90;;;;;;5046124;28;20490;-73
2021/06/10 15:31:16;;;;;;;7.50;6.90;;;26.20;99.90;;;;;;5053331;28;20203;-73
2021/06/10 15:33:43;;;;;;;7.40;6.70;;;26.30;99.90;;;;;;5053126;28;20558;-73
2021/06/10 15:36:09;;;;;;;8.27;7.67;;;26.40;99.90;;;;;;5053245;28;20451;-74
2021/06/10 15:38:35;;;;;;;9.47;8.67;;;26.50;99.90;;;;;;5053499;28;20403;-74
2021/06/10 15:41:01;;;;;;;9.10;8.30;;;26.60;99.90;;;;;;5052896;28;20546;-74
2021/06/10 15:43:27;;;;;;;8.10;7.40;;;26.40;99.90;;;;;;5052930;28;20419;-76
2021/06/10 15:45:53;;;;;;;7.90;7.30;;;26.00;99.90;;;;;;5053017;28;20407;-74
2021/06/10 15:48:18;;;;;;;6.03;5.53;;;25.60;99.90;;;;;;5051722;28;20265;-73
2021/06/10 15:50:45;;;;;;;7.37;5.57;;;25.30;99.90;;;;;;5052835;28;20170;-74
2021/06/10 15:53:10;;;;;;;5.93;5.50;;;25.00;99.90;;;;;;5052762;28;20610;-72
2021/06/10 15:55:36;;;;;;;6.30;5.67;;;24.70;99.90;;;;;;5052851;28;20408;-73
2021/06/10 15:58:02;;;;;;;5.60;5.10;;;24.60;99.90;;;;;;5051665;28;20181;-73
2021/06/10 16:00:28;;;;;;;5.57;5.07;;;24.50;99.90;;;;;;5052377;28;20915;-73
2021/06/10 16:02:53;;;;;;;5.40;5.00;;;24.50;99.90;;;;;;5051010;28;20223;-73
2021/06/10 16:05:21;;;;;;;4.80;4.50;;;24.40;99.90;;;;;;5052530;28;20231;-75
2021/06/10 16:07:47;;;;;;;5.57;5.07;;;24.50;99.90;;;;;;5052641;28;20556;-76
2021/06/10 16:10:15;;;;;;;5.70;5.20;;;24.50;99.90;;;;;;5053348;28;20423;-74
2021/06/10 16:12:41;;;;;;;7.77;6.00;;;24.60;99.90;;;;;;5051943;28;20474;-76
2021/06/10 16:15:08;;;;;;;5.93;5.40;;;24.50;99.90;;;;;;5052318;28;20423;-76
2021/06/10 16:17:33;;;;;;;5.37;5.07;;;24.40;99.90;;;;;;5053959;28;20466;-75
2021/06/10 16:19:59;;;;;;;9.00;6.00;;;24.50;99.90;;;;;;5053427;28;20408;-76
2021/06/10 16:22:25;;;;;;;6.83;5.37;;;24.50;99.90;;;;;;5053628;28;20659;-76
2021/06/10 16:24:51;;;;;;;7.60;5.57;;;24.50;99.90;;;;;;5053507;28;20165;-75
2021/06/10 16:27:18;;;;;;;5.53;5.13;;;24.60;99.90;;;;;;5053816;28;20876;-75
2021/06/10 16:29:45;;;;;;;6.33;5.90;;;24.60;99.90;;;;;;5053723;28;20176;-74
2021/06/10 16:32:12;;;;;;;6.20;5.70;;;24.70;99.90;;;;;;5053613;28;20788;-75
2021/06/10 16:34:37;;;;;;;6.10;5.70;;;24.60;99.90;;;;;;5052191;28;20424;-73
2021/06/10 16:37:03;;;;;;;7.60;6.20;;;24.60;99.90;;;;;;5053460;28;20459;-75
2021/06/10 16:39:28;;;;;;;7.10;6.00;;;24.50;99.90;;;;;;5053634;28;20188;-76
2021/06/10 16:41:55;;;;;;;6.87;6.37;;;24.40;99.90;;;;;;5053081;28;20308;-76
2021/06/10 16:44:20;;;;;;;5.90;5.50;;;24.40;99.90;;;;;;5051872;28;20173;-76
2021/06/10 16:46:46;;;;;;;6.23;5.73;;;24.20;99.90;;;;;;5053432;28;20427;-76
2021/06/10 16:49:11;;;;;;;6.50;6.00;;;24.10;99.90;;;;;;5053291;28;20181;-76
2021/06/10 16:51:37;;;;;;;6.10;5.70;;;23.70;99.90;;;;;;5053462;28;20205;-76
2021/06/10 16:54:04;;;;;;;7.03;6.53;;;23.50;99.90;;;;;;5053114;28;20272;-76
2021/06/10 16:56:30;;;;;;;6.37;5.90;;;23.40;99.90;;;;;;5038267;28;20613;-79
2021/06/10 16:59:00;;;;;;;6.40;5.90;;;23.40;99.90;;;;;;5034252;28;20417;-77
2021/06/10 17:01:32;;;;;;;8.87;5.90;;;23.40;99.90;;;;;;5031577;28;20209;-78
2021/06/10 17:04:02;;;;;;;6.10;5.70;;;23.30;99.90;;;;;;5032341;28;20420;-78
2021/06/10 17:06:47;;;;;;;6.90;6.40;;;23.30;99.90;;;;;;5034247;28;20416;-79
2021/06/10 17:09:18;;;;;;;6.50;6.10;;;23.30;99.90;;;;;;5033055;28;20420;-78
2021/06/10 17:11:46;;;;;;;6.63;5.77;;;23.20;99.90;;;;;;5032761;28;20428;-81
2021/06/10 17:14:12;;;;;;;7.40;6.90;;;23.30;99.90;;;;;;5034684;28;20491;-80
2021/06/10 17:16:39;;;;;;;8.83;6.70;;;23.30;99.90;;;;;;5033877;28;21059;-81
2021/06/10 17:19:07;;;;;;;7.60;6.77;;;23.30;99.90;;;;;;5030478;28;20181;-78